Overview Statistics Trail Chart Weather Telemetry Raw packets
 

This is the latest recevied weather packets stored in our database for station/object PE1RXF-13. If no packets are shown the sender has not sent any weather packets the latest 10 day(s).

<< 1 2 3 4 5 6 7 >>
Time Temp. Humidity Pressure Rain* Wind** Luminosity Snow
1788621496 17.78° C 76% 1020.1 hPa 0 mm - 84 W/m² -
1788620393 18.89° C 69% 1019.9 hPa 0 mm - 84 W/m² -
1788619289 20.56° C 64% 1019.6 hPa 0 mm - 126 W/m² -
1788618187 18.33° C 82% 1019.4 hPa 0 mm - 128 W/m² -
1788617084 21.67° C 67% 1019.3 hPa 0 mm - 129 W/m² -
1788615980 19.44° C 68% 1019.2 hPa 0 mm - 37 W/m² -
1788614878 21.11° C 68% 1018.9 hPa 0 mm - 84 W/m² -
1788613775 19.44° C 84% 1018.7 hPa 0 mm - 159 W/m² -
1788612672 21.67° C 78% 1018.5 hPa 0 mm - 230 W/m² -
1788611568 21.11° C 83% 1018.3 hPa 0 mm - 188 W/m² -
1788610466 20° C 84% 1018.1 hPa 0 mm - 142 W/m² -
1788609363 18.89° C 87% 1017.8 hPa 0.25 mm - 68 W/m² -
1788608259 18.33° C 85% 1017.4 hPa 0.25 mm - 40 W/m² -
1788607157 22.22° C 75% 1017.1 hPa 0.25 mm - 216 W/m² -
1788606078 21.11° C 86% 1017.1 hPa 0.25 mm - 186 W/m² -
1788604951 17.22° C 99% 1017 hPa 0 mm - 259 W/m² -
1788603847 18.89° C 75% 1016.7 hPa 0 mm - 18 W/m² -
1788602744 21.11° C 67% 1016.4 hPa 0 mm - 95 W/m² -
1788601642 21.67° C 74% 1016.1 hPa 0 mm - 171 W/m² -
1788600539 21.67° C 76% 1015.9 hPa 0 mm - 139 W/m² -
1788599435 21.11° C 81% 1015.8 hPa 0 mm - 149 W/m² -
1788598332 18.89° C 99% 1015.6 hPa 0 mm - 121 W/m² -
1788597230 18.89° C 99% 1015.4 hPa 0 mm - 24 W/m² -
1788596126 19.44° C 99% 1015.2 hPa 0 mm - 91 W/m² -
1788593921 16.11° C 99% 1014.9 hPa 0 mm - 30 W/m² -

* Rain latest hour (hover to see other rain measurements)
** Current wind speed in m/s (hover to see current wind gust speed)